Iris Victoria — V7TS8 — position and weather

sailwx.info

Track history (hours):
 
Tides and Currents Weather Stations Pressure Air Temp Water Temp Dewpoint Dewpoint Depression Visibility Wind Speed Wind Dir Waves Ship Positions

Iris Victoria

Last reported at 2014-Aug-23 19:21 UTC. Time now 2014-Aug-23 19:47 UTC.
Position N 37°24' W 009°34'.

Length 228 m; draft 13.7 m.

Type: Ship. MMSI: 538003876.

Date/timePositionNaut miles runAvg speedWind from/ knotsBaromVisibWave heightAir tempDewpointWater temp
2014-Aug-23 19:21N 37°24' W 009°34'21711.4
2014-Aug-23 00:20N 36°02' W 005°24'10510.8
2014-Aug-22 14:32N 36°11' W 003°14'2912.6
2014-Aug-22 12:14N 36°13' W 002°38'912.9
2014-Aug-22 11:33N 36°14' W 002°27'1313.0
2014-Aug-22 10:33N 36°14' W 002°11'1312.7
2014-Aug-22 09:33N 36°16' W 001°55'1513.1
2014-Aug-22 08:24N 36°21' W 001°38'1113.3
2014-Aug-22 07:33N 36°25' W 001°25'1613.2
2014-Aug-22 06:22N 36°30' W 001°06'1113.4
2014-Aug-22 05:32N 36°33' W 000°53'1313.3
2014-Aug-22 04:33N 36°38' W 000°38'1313.0
2014-Aug-22 03:33N 36°42' W 000°22'1312.8
2014-Aug-22 02:33N 36°46' W 000°07'1312.8
2014-Aug-22 01:33N 36°50' E 000°08'1313.3
2014-Aug-22 00:33N 36°54' E 000°24'1313.3
2014-Aug-21 23:33N 36°58' E 000°40'1313.5
2014-Aug-21 22:33N 37°03' E 000°56'1413.5
2014-Aug-21 21:33N 37°07' E 001°12'1413.8
2014-Aug-21 20:32N 37°11' E 001°28'1413.6
2014-Aug-21 19:33N 37°16' E 001°44'1313.3
2014-Aug-21 18:33N 37°20' E 002°00'1313.1
2014-Aug-21 17:33N 37°21' E 002°17'1512.1
2014-Aug-21 16:18N 37°23' E 002°35'911.9
2014-Aug-21 15:33N 37°24' E 002°46'1312.6
2014-Aug-21 14:33N 37°25' E 003°02'1312.6
2014-Aug-21 13:33N 37°26' E 003°18'1512.9
2014-Aug-21 12:23N 37°27' E 003°37'21713.4
2014-Aug-20 20:14N 37°46' E 008°10'1113.2
2014-Aug-20 19:26N 37°45' E 008°23'1213.3
2014-Aug-20 18:33N 37°44' E 008°38'1313.1
2014-Aug-20 17:33N 37°43' E 008°55'1312.7
2014-Aug-20 16:32N 37°42' E 009°11'1212.5
2014-Aug-20 15:32N 37°41' E 009°26'1212.5
2014-Aug-20 14:33N 37°40' E 009°42'1312.5
2014-Aug-20 13:33N 37°39' E 009°58'1312.2
2014-Aug-20 12:30N 37°39' E 010°14'1412.2
2014-Aug-20 11:20N 37°39' E 010°32'1512.6
2014-Aug-20 10:10N 37°36' E 010°50'2413.3
2014-Aug-20 08:21N 37°24' E 011°17'3913.3
2014-Aug-20 05:24N 37°07' E 012°01'1113.3
2014-Aug-20 04:33N 37°02' E 012°13'1313.1
2014-Aug-20 03:32N 36°56' E 012°29'1313.4
2014-Aug-20 02:33N 36°51' E 012°43'1313.3
2014-Aug-20 01:33N 36°45' E 012°59'1313.2
2014-Aug-20 00:33N 36°40' E 013°13'1313.0
2014-Aug-19 23:33N 36°34' E 013°28'1312.8
2014-Aug-19 22:33N 36°29' E 013°43'1313.3
2014-Aug-19 21:33N 36°23' E 013°58'1313.1
2014-Aug-19 20:33N 36°19' E 014°13'1313.0
2014-Aug-19 19:33N 36°16' E 014°29'1313.1
2014-Aug-19 18:33N 36°13' E 014°45'1313.2
2014-Aug-19 17:34N 36°08' E 014°60'1312.9
2014-Aug-19 16:33N 36°05' E 015°15'1313.2
2014-Aug-19 15:34N 36°01' E 015°31'1513.2
2014-Aug-19 14:23N 35°57' E 015°49'1613.1
2014-Aug-19 13:11N 35°53' E 016°08'55412.6
2014-Aug-17 17:05N 33°23' E 026°57'612.1
2014-Aug-17 16:33N 33°21' E 027°04'1212.5
2014-Aug-17 15:33N 33°18' E 027°19'1312.7
2014-Aug-17 14:32N 33°15' E 027°34'3013.1
2014-Aug-17 12:16N 33°06' E 028°08'3612.6
2014-Aug-17 09:27N 32°57' E 028°48'1512.1
2014-Aug-17 08:13N 32°53' E 029°06'1312.1
2014-Aug-17 07:10N 32°50' E 029°20'812.1
2014-Aug-17 06:31N 32°48' E 029°29'4213.5
2014-Aug-17 03:25N 32°36' E 030°17'3913.8
2014-Aug-17 00:33N 32°26' E 031°02'1414.1
2014-Aug-16 23:33N 32°21' E 031°18'1614.0
2014-Aug-16 22:23N 32°09' E 031°31'1214.0
2014-Aug-16 21:33N 32°01' E 031°41'4113.4
2014-Aug-16 18:30N 31°32' E 032°15'103 6.1
2014-Aug-16 01:32N 29°51' E 032°35'44 2.6
2014-Aug-15 08:28N 29°08' E 032°48'  
Track history (hours):
 
Tides and Currents Weather Stations Pressure Air Temp Water Temp Dewpoint Dewpoint Depression Visibility Wind Speed Wind Dir Waves Ship Positions

Iris Victoria

Last reported at 2014-Aug-23 19:21 UTC. Time now 2014-Aug-23 19:47 UTC.
Position N 37°24' W 009°34'.

Length 228 m; draft 13.7 m.

Type: Ship. MMSI: 538003876.

Date/timePositionNaut miles runAvg speedWind from/ knotsBaromVisibWave heightAir tempDewpointWater temp
2014-Aug-23 19:21N 37°24' W 009°34'21711.4
2014-Aug-23 00:20N 36°02' W 005°24'10510.8
2014-Aug-22 14:32N 36°11' W 003°14'2912.6
2014-Aug-22 12:14N 36°13' W 002°38'912.9
2014-Aug-22 11:33N 36°14' W 002°27'1313.0
2014-Aug-22 10:33N 36°14' W 002°11'1312.7
2014-Aug-22 09:33N 36°16' W 001°55'1513.1
2014-Aug-22 08:24N 36°21' W 001°38'1113.3
2014-Aug-22 07:33N 36°25' W 001°25'1613.2
2014-Aug-22 06:22N 36°30' W 001°06'1113.4
2014-Aug-22 05:32N 36°33' W 000°53'1313.3
2014-Aug-22 04:33N 36°38' W 000°38'1313.0
2014-Aug-22 03:33N 36°42' W 000°22'1312.8
2014-Aug-22 02:33N 36°46' W 000°07'1312.8
2014-Aug-22 01:33N 36°50' E 000°08'1313.3
2014-Aug-22 00:33N 36°54' E 000°24'1313.3
2014-Aug-21 23:33N 36°58' E 000°40'1313.5
2014-Aug-21 22:33N 37°03' E 000°56'1413.5
2014-Aug-21 21:33N 37°07' E 001°12'1413.8
2014-Aug-21 20:32N 37°11' E 001°28'1413.6
2014-Aug-21 19:33N 37°16' E 001°44'1313.3
2014-Aug-21 18:33N 37°20' E 002°00'1313.1
2014-Aug-21 17:33N 37°21' E 002°17'1512.1
2014-Aug-21 16:18N 37°23' E 002°35'911.9
2014-Aug-21 15:33N 37°24' E 002°46'1312.6
2014-Aug-21 14:33N 37°25' E 003°02'1312.6
2014-Aug-21 13:33N 37°26' E 003°18'1512.9
2014-Aug-21 12:23N 37°27' E 003°37'21713.4
2014-Aug-20 20:14N 37°46' E 008°10'1113.2
2014-Aug-20 19:26N 37°45' E 008°23'1213.3
2014-Aug-20 18:33N 37°44' E 008°38'1313.1
2014-Aug-20 17:33N 37°43' E 008°55'1312.7
2014-Aug-20 16:32N 37°42' E 009°11'1212.5
2014-Aug-20 15:32N 37°41' E 009°26'1212.5
2014-Aug-20 14:33N 37°40' E 009°42'1312.5
2014-Aug-20 13:33N 37°39' E 009°58'1312.2
2014-Aug-20 12:30N 37°39' E 010°14'1412.2
2014-Aug-20 11:20N 37°39' E 010°32'1512.6
2014-Aug-20 10:10N 37°36' E 010°50'2413.3
2014-Aug-20 08:21N 37°24' E 011°17'3913.3
2014-Aug-20 05:24N 37°07' E 012°01'1113.3
2014-Aug-20 04:33N 37°02' E 012°13'1313.1
2014-Aug-20 03:32N 36°56' E 012°29'1313.4
2014-Aug-20 02:33N 36°51' E 012°43'1313.3
2014-Aug-20 01:33N 36°45' E 012°59'1313.2
2014-Aug-20 00:33N 36°40' E 013°13'1313.0
2014-Aug-19 23:33N 36°34' E 013°28'1312.8
2014-Aug-19 22:33N 36°29' E 013°43'1313.3
2014-Aug-19 21:33N 36°23' E 013°58'1313.1
2014-Aug-19 20:33N 36°19' E 014°13'1313.0
2014-Aug-19 19:33N 36°16' E 014°29'1313.1
2014-Aug-19 18:33N 36°13' E 014°45'1313.2
2014-Aug-19 17:34N 36°08' E 014°60'1312.9
2014-Aug-19 16:33N 36°05' E 015°15'1313.2
2014-Aug-19 15:34N 36°01' E 015°31'1513.2
2014-Aug-19 14:23N 35°57' E 015°49'1613.1
2014-Aug-19 13:11N 35°53' E 016°08'55412.6
2014-Aug-17 17:05N 33°23' E 026°57'612.1
2014-Aug-17 16:33N 33°21' E 027°04'1212.5
2014-Aug-17 15:33N 33°18' E 027°19'1312.7
2014-Aug-17 14:32N 33°15' E 027°34'3013.1
2014-Aug-17 12:16N 33°06' E 028°08'3612.6
2014-Aug-17 09:27N 32°57' E 028°48'1512.1
2014-Aug-17 08:13N 32°53' E 029°06'1312.1
2014-Aug-17 07:10N 32°50' E 029°20'812.1
2014-Aug-17 06:31N 32°48' E 029°29'4213.5
2014-Aug-17 03:25N 32°36' E 030°17'3913.8
2014-Aug-17 00:33N 32°26' E 031°02'1414.1
2014-Aug-16 23:33N 32°21' E 031°18'1614.0
2014-Aug-16 22:23N 32°09' E 031°31'1214.0
2014-Aug-16 21:33N 32°01' E 031°41'4113.4
2014-Aug-16 18:30N 31°32' E 032°15'103 6.1
2014-Aug-16 01:32N 29°51' E 032°35'44 2.6
2014-Aug-15 08:28N 29°08' E 032°48'  

Dump ship's entire track history